Flight Track Log - Related Links

Times and Time Zones

All times are in EDT time to prevent confusion due to time zone crossing. See the AAL1144 flight status page for this flight to view local times or setup timezone preferences in your user account.

Time Position Orientation Groundspeed Altitude Reporting Facility
EDT Latitude Longitude Course Direction KTS MPH feet Rate Location/Type
Thu 09:12:03 PM 33.6470 -117.8860 201° Southwest 172 198 1,600  Level FlightAware ADS-B
Thu 09:12:33 PM 33.6180 -117.8930 191° South 225 259 2,200 1,552 Climbing FlightAware ADS-B
Thu 09:13:01 PM 33.5880 -117.8970 186° South 261 300 3,100 2,483 Climbing FlightAware ADS-B
Thu 09:13:31 PM 33.5510 -117.8860 166° South 279 321 4,600 3,000 Climbing FlightAware ADS-B
Thu 09:13:41 PM 33.5420 -117.8730 130° Southeast 282 325 5,100 3,214 Climbing FlightAware ADS-B
Thu 09:13:59 PM 33.5370 -117.8460 103° East 283 326 6,100 3,130 Climbing FlightAware ADS-B
Thu 09:14:27 PM 33.5420 -117.8000 83° East 291 335 7,500 2,893 Climbing FlightAware ADS-B
Thu 09:14:55 PM 33.5480 -117.7570 80° East 297 342 8,800 2,400 Climbing FlightAware ADS-B
Thu 09:15:47 PM 33.5600 -117.6670 81° East 332 382 10,700 1,677 Climbing FlightAware ADS-B
Thu 09:16:28 PM 33.5700 -117.5870 81° East 382 440 11,400 1,538 Climbing FlightAware ADS-B
Thu 09:17:05 PM 33.5800 -117.5050 82° East 402 463 12,700 2,250 Climbing FlightAware ADS-B
Thu 09:17:56 PM 33.5870 -117.3920 86° East 416 479 14,700 2,200 Climbing FlightAware ADS-B
Thu 09:18:35 PM 33.5900 -117.2990 88° East 431 496 16,000 2,096 Climbing FlightAware ADS-B
Thu 09:19:19 PM 33.5940 -117.1970 87° East 440 506 17,600 2,214 Climbing FlightAware ADS-B
Thu 09:19:59 PM 33.5980 -117.0950 87° East 449 517 19,100 2,175 Climbing FlightAware ADS-B
Thu 09:20:39 PM 33.6010 -116.9930 88° East 457 526 20,500 2,025 Climbing FlightAware ADS-B
Thu 09:21:19 PM 33.6050 -116.8920 87° East 467 537 21,800 1,814 Climbing FlightAware ADS-B
Thu 09:22:05 PM 33.6090 -116.7700 88° East 479 551 23,100 1,705 Climbing FlightAware ADS-B
Thu 09:22:47 PM 33.6130 -116.6590 87° East 486 559 24,300 1,579 Climbing FlightAware ADS-B
Thu 09:23:40 PM 33.6240 -116.5180 85° East 499 574 25,600 1,041 Climbing FlightAware ADS-B
Thu 09:24:25 PM 33.6670 -116.4210 62° Northeast 505 581 26,000 1,605 Climbing FlightAware ADS-B
Thu 09:25:06 PM 33.7330 -116.3110 54° Northeast 510 587 27,900 1,407 Climbing FlightAware ADS-B
Thu 09:25:46 PM 33.7780 -116.2310 56° Northeast 510 587 27,900  Level FlightAware ADS-B
Thu 09:26:32 PM 33.8290 -116.1380 57° Northeast 510 587 27,900  Level FlightAware ADS-B
Thu 09:27:08 PM 33.8700 -116.0660 56° Northeast 510 587 27,900  Level FlightAware ADS-B
Thu 09:27:56 PM 33.9240 -115.9700 56° Northeast 510 587 27,900 3,099 Level FlightAware ADS-B
Thu 09:28:39 PM 34.0170 -115.8050 56° Northeast 518 596 32,600 3,481 Climbing FlightAware ADS-B
Thu 09:29:17 PM 34.0530 -115.7220 62° Northeast 518 596 32,600 1,500 Level FlightAware ADS-B
Thu 09:29:59 PM 34.0980 -115.5950 67° East 508 585 34,600 2,233 Climbing FlightAware ADS-B
Thu 09:30:43 PM 34.1390 -115.4850 66° East 497 572 35,800 1,462 Climbing FlightAware ADS-B
Thu 09:31:17 PM 34.1720 -115.4010 65° Northeast 492 566 36,500 835 Climbing FlightAware ADS-B
Thu 09:32:02 PM 34.2170 -115.2850 65° Northeast 500 575 36,900 323 Climbing FlightAware ADS-B
Thu 09:32:50 PM 34.2790 -115.1890 52° Northeast 502 578 37,000 72 Climbing FlightAware ADS-B
Thu 09:33:25 PM 34.3470 -115.1340 34° Northeast 499 574 37,000  Level FlightAware ADS-B
Thu 09:34:05 PM 34.4140 -115.0830 32° Northeast 499 574 37,000  Level FlightAware ADS-B
Thu 09:34:51 PM 34.5180 -114.9960 35° Northeast 500 575 37,000  Level FlightAware ADS-B
Thu 09:36:04 PM 34.6380 -114.8890 36° Northeast 504 580 37,000  Level FlightAware ADS-B
Thu 09:36:45 PM 34.7100 -114.7770 52° Northeast 506 582 37,000  Level FlightAware ADS-B
Thu 09:37:27 PM 34.7680 -114.6830 53° Northeast 505 581 37,000  Level FlightAware ADS-B
Thu 09:38:13 PM 34.8330 -114.5780 53° Northeast 504 580 37,000  Level FlightAware ADS-B
Thu 09:38:53 PM 34.8880 -114.4880 53° Northeast 505 581 37,000  Level FlightAware ADS-B
Thu 09:39:37 PM 34.9440 -114.3940 54° Northeast 504 580 37,000  Level FlightAware ADS-B
Thu 09:40:17 PM 35.0030 -114.2950 54° Northeast 505 581 37,000  Level FlightAware ADS-B
Thu 09:41:00 PM 35.0640 -114.1940 54° Northeast 505 581 37,000  Level FlightAware ADS-B
Thu 09:41:40 PM 35.1190 -114.1020 54° Northeast 506 582 37,000  Level FlightAware ADS-B
Thu 09:42:24 PM 35.1790 -114.0020 54° Northeast 507 583 37,000  Level FlightAware ADS-B
Thu 09:43:06 PM 35.2380 -113.9030 54° Northeast 505 581 37,000  Level FlightAware ADS-B
Thu 09:43:46 PM 35.2930 -113.8100 54° Northeast 507 583 37,000  Level FlightAware ADS-B
Thu 09:44:26 PM 35.3460 -113.7200 54° Northeast 505 581 37,000  Level FlightAware ADS-B
Thu 09:45:11 PM 35.4090 -113.6140 54° Northeast 507 583 37,000  Level FlightAware ADS-B
Thu 09:45:49 PM 35.4610 -113.5250 54° Northeast 507 583 37,000  Level FlightAware ADS-B
Thu 09:46:35 PM 35.5240 -113.4180 54° Northeast 507 583 37,000  Level FlightAware ADS-B
Thu 09:47:19 PM 35.5850 -113.3130 54° Northeast 509 586 37,000  Level FlightAware ADS-B
Thu 09:47:57 PM 35.6370 -113.2240 54° Northeast 510 587 37,000  Level FlightAware ADS-B
Thu 09:48:40 PM 35.6950 -113.1260 54° Northeast 509 586 37,000  Level FlightAware ADS-B
Thu 09:49:25 PM 35.7570 -113.0190 54° Northeast 509 586 37,000  Level FlightAware ADS-B
Thu 09:50:04 PM 35.8100 -112.9260 55° Northeast 509 586 37,000  Level FlightAware ADS-B
Thu 09:50:53 PM 35.8780 -112.8100 54° Northeast 508 585 37,000  Level FlightAware ADS-B
Thu 09:51:37 PM 35.9370 -112.7070 55° Northeast 508 585 37,000  Level FlightAware ADS-B
Thu 09:52:19 PM 35.9940 -112.6070 55° Northeast 508 585 37,000  Level FlightAware ADS-B
Thu 09:52:59 PM 36.0480 -112.5130 55° Northeast 508 585 37,000  Level FlightAware ADS-B
Thu 09:53:39 PM 36.1030 -112.4170 55° Northeast 509 586 37,000  Level FlightAware ADS-B
Thu 09:54:19 PM 36.1550 -112.3240 55° Northeast 509 586 37,000  Level FlightAware ADS-B
Thu 09:55:06 PM 36.2190 -112.2110 55° Northeast 507 583 37,000  Level FlightAware ADS-B
Thu 09:55:56 PM 36.2480 -112.1600 55° Northeast 508 585 37,000  Level FlightAware ADS-B
Thu 09:56:41 PM 36.3470 -111.9830 55° Northeast 506 582 37,000  Level FlightAware ADS-B
Thu 09:57:27 PM 36.4080 -111.8750 55° Northeast 507 583 37,000  Level FlightAware ADS-B
Thu 09:58:07 PM 36.4620 -111.7790 55° Northeast 505 581 37,000  Level FlightAware ADS-B
Thu 09:58:51 PM 36.5200 -111.6750 55° Northeast 505 581 37,000  Level FlightAware ADS-B
Thu 09:59:31 PM 36.5730 -111.5800 55° Northeast 506 582 37,000  Level FlightAware ADS-B
Thu 10:00:12 PM 36.6270 -111.4830 55° Northeast 505 581 37,000  Level FlightAware ADS-B
Thu 10:00:57 PM 36.6880 -111.3720 56° Northeast 508 585 37,000  Level FlightAware ADS-B
Thu 10:01:37 PM 36.7400 -111.2770 56° Northeast 509 586 37,000  Level FlightAware ADS-B
Thu 10:02:13 PM 36.7890 -111.1880 55° Northeast 511 588 37,000  Level FlightAware ADS-B
Thu 10:03:03 PM 36.8530 -111.0720 55° Northeast 512 589 37,000  Level FlightAware ADS-B
Thu 10:03:44 PM 36.9080 -110.9710 56° Northeast 510 587 37,000  Level FlightAware ADS-B
Thu 10:04:21 PM 36.9580 -110.8810 55° Northeast 510 587 37,000  Level FlightAware ADS-B
Thu 10:05:24 PM 37.0330 -110.7450 55° Northeast 511 588 37,000  Level FlightAware ADS-B
Thu 10:06:02 PM 37.0770 -110.6670 55° Northeast 511 588 37,000  Level FlightAware ADS-B
Thu 10:06:39 PM 37.1190 -110.5910 55° Northeast 511 588 37,000  Level FlightAware ADS-B
Thu 10:07:28 PM 37.1760 -110.4900 55° Northeast 511 588 37,000  Level FlightAware ADS-B
Thu 10:08:04 PM 37.2170 -110.4150 56° Northeast 511 588 37,000  Level FlightAware ADS-B
Thu 10:08:51 PM 37.3130 -110.2210 58° Northeast 506 582 37,000  Level FlightAware ADS-B
Thu 10:09:33 PM 37.3690 -110.1160 56° Northeast 506 582 37,000  Level FlightAware ADS-B
Thu 10:10:10 PM 37.4170 -110.0250 56° Northeast 505 581 37,000  Level FlightAware ADS-B
Thu 10:10:57 PM 37.4770 -109.9120 56° Northeast 505 581 37,000  Level FlightAware ADS-B
Thu 10:11:43 PM 37.5290 -109.8140 56° Northeast 506 582 37,000  Level FlightAware ADS-B
Thu 10:12:21 PM 37.5850 -109.7060 57° Northeast 503 579 37,000  Level FlightAware ADS-B
Thu 10:13:04 PM 37.6410 -109.6000 56° Northeast 500 575 37,000  Level FlightAware ADS-B
Thu 10:13:45 PM 37.6920 -109.5020 57° Northeast 499 574 37,000  Level FlightAware ADS-B
Thu 10:14:29 PM 37.7480 -109.3940 57° Northeast 503 579 37,000  Level FlightAware ADS-B
Thu 10:15:38 PM 37.7970 -109.3000 57° Northeast 507 583 37,000  Level FlightAware ADS-B
Thu 10:15:48 PM 37.8300 -109.2360 57° Northeast 507 583 37,000  Level FlightAware ADS-B
Thu 10:18:23 PM 38.0490 -108.8120 57° Northeast 509 586 37,000  Level FlightAware ADS-B
Thu 10:19:07 PM 38.1050 -108.7020 57° Northeast 503 579 37,000  Level FlightAware ADS-B
Thu 10:19:47 PM 38.1560 -108.6020 57° Northeast 509 586 37,000  Level FlightAware ADS-B
Thu 10:20:31 PM 38.2110 -108.4920 58° Northeast 510 587 37,000  Level FlightAware ADS-B
Thu 10:21:11 PM 38.2620 -108.3910 57° Northeast 510 587 37,000  Level FlightAware ADS-B
Thu 10:21:54 PM 38.3180 -108.2810 57° Northeast 502 578 37,000  Level FlightAware ADS-B
Thu 10:22:35 PM 38.3680 -108.1810 57° Northeast 501 577 37,000 73 Level FlightAware ADS-B
Thu 10:23:16 PM 38.4200 -108.0780 57° Northeast 504 580 37,100 494 Climbing FlightAware ADS-B
Thu 10:24:00 PM 38.4670 -107.9830 58° Northeast 503 579 37,700 682 Climbing FlightAware ADS-B
Thu 10:24:44 PM 38.5310 -107.8550 57° Northeast 511 588 38,100 619 Climbing FlightAware ADS-B
Thu 10:25:37 PM 38.5960 -107.7220 58° Northeast 509 586 38,700 563 Climbing FlightAware ADS-B
Thu 10:26:20 PM 38.6500 -107.6130 58° Northeast 510 587 39,000 207 Climbing FlightAware ADS-B
Thu 10:27:04 PM 38.7063 -107.4990 58° Northeast 513 590 39,000  Level FlightAware ADS-B
Thu 10:27:35 PM 38.7449 -107.4200 58° Northeast 511 588 39,000  Level FlightAware ADS-B
Thu 10:28:05 PM 38.7828 -107.3430 58° Northeast 512 589 39,000  Level FlightAware ADS-B
Thu 10:28:35 PM 38.8204 -107.2660 58° Northeast 512 589 39,000  Level FlightAware ADS-B
Thu 10:29:05 PM 38.8586 -107.1880 58° Northeast 511 588 39,000  Level FlightAware ADS-B
Thu 10:29:37 PM 38.8982 -107.1060 58° Northeast 510 587 39,000  Level FlightAware ADS-B
Thu 10:30:08 PM 38.9361 -107.0280 58° Northeast 508 585 39,000  Level FlightAware ADS-B
Thu 10:30:38 PM 38.9734 -106.9510 58° Northeast 508 585 39,000  Level FlightAware ADS-B
Thu 10:31:08 PM 39.0107 -106.8740 58° Northeast 506 582 39,000  Level FlightAware ADS-B
Thu 10:31:38 PM 39.0479 -106.7960 58° Northeast 506 582 39,000  Level FlightAware ADS-B
Thu 10:32:10 PM 39.0866 -106.7150 58° Northeast 506 582 39,000  Level FlightAware ADS-B
Thu 10:32:40 PM 39.1237 -106.6380 58° Northeast 505 581 39,000  Level FlightAware ADS-B
Thu 10:33:20 PM 39.1715 -106.5370 59° Northeast 504 580 39,000  Level FlightAware ADS-B
Thu 10:33:50 PM 39.2089 -106.4590 58° Northeast 504 580 39,000  Level FlightAware ADS-B
Thu 10:34:21 PM 39.2456 -106.3820 58° Northeast 502 578 39,000  Level FlightAware ADS-B
Thu 10:34:51 PM 39.2822 -106.3040 59° Northeast 500 575 39,000  Level FlightAware ADS-B
Thu 10:35:21 PM 39.3186 -106.2280 58° Northeast 500 575 39,000  Level FlightAware ADS-B
Thu 10:35:53 PM 39.3563 -106.1480 59° Northeast 500 575 39,000  Level FlightAware ADS-B
Thu 10:36:23 PM 39.3924 -106.0710 59° Northeast 500 575 39,000  Level FlightAware ADS-B
Thu 10:36:53 PM 39.4292 -105.9920 59° Northeast 502 578 39,000  Level FlightAware ADS-B
Thu 10:37:25 PM 39.4668 -105.9120 59° Northeast 501 577 39,000  Level FlightAware ADS-B
Thu 10:37:55 PM 39.5028 -105.8350 59° Northeast 501 577 39,000  Level FlightAware ADS-B
Thu 10:38:26 PM 39.5394 -105.7560 59° Northeast 501 577 39,000  Level FlightAware ADS-B
Thu 10:38:56 PM 39.5757 -105.6780 59° Northeast 502 578 39,000  Level FlightAware ADS-B
Thu 10:39:27 PM 39.6125 -105.5980 59° Northeast 503 579 39,000  Level FlightAware ADS-B
Thu 10:39:57 PM 39.6484 -105.5200 59° Northeast 503 579 39,000  Level FlightAware ADS-B
Thu 10:40:27 PM 39.6843 -105.4420 59° Northeast 503 579 39,000  Level FlightAware ADS-B
Thu 10:40:57 PM 39.7200 -105.3650 59° Northeast 493 567 39,000  Level FlightAware ADS-B
Thu 10:41:28 PM 39.7553 -105.2880 59° Northeast 492 566 39,000  Level FlightAware ADS-B
Thu 10:41:58 PM 39.7906 -105.2110 59° Northeast 489 563 39,000  Level FlightAware ADS-B
Thu 10:42:28 PM 39.8250 -105.1350 59° Northeast 489 563 39,000  Level FlightAware ADS-B
Thu 10:43:00 PM 39.8611 -105.0560 59° Northeast 490 564 39,000  Level FlightAware ADS-B
Thu 10:43:30 PM 39.8968 -104.9770 59° Northeast 492 566 39,000  Level FlightAware ADS-B
Thu 10:44:01 PM 39.9315 -104.9000 60° Northeast 488 562 39,000  Level FlightAware ADS-B
Thu 10:44:31 PM 39.9657 -104.8240 60° Northeast 486 559 39,000  Level FlightAware ADS-B
Thu 10:45:01 PM 39.9999 -104.7480 60° Northeast 485 558 39,000  Level FlightAware ADS-B
Thu 10:45:31 PM 40.0340 -104.6730 59° Northeast 485 558 39,000  Level FlightAware ADS-B
Thu 10:46:01 PM 40.0680 -104.5970 60° Northeast 484 557 39,000  Level FlightAware ADS-B
Thu 10:46:32 PM 40.1022 -104.5200 60° Northeast 481 554 39,000  Level FlightAware ADS-B
Thu 10:47:02 PM 40.1360 -104.4450 59° Northeast 480 552 39,000  Level FlightAware ADS-B
Thu 10:47:32 PM 40.1694 -104.3700 60° Northeast 477 549 39,000  Level FlightAware ADS-B
Thu 10:48:02 PM 40.2022 -104.2970 60° Northeast 466 536 39,000  Level FlightAware ADS-B
Thu 10:48:32 PM 40.2345 -104.2230 60° Northeast 466 536 39,000  Level FlightAware ADS-B
Thu 10:49:07 PM 40.2718 -104.1390 60° Northeast 466 536 39,000  Level FlightAware ADS-B
Thu 10:49:37 PM 40.3043 -104.0650 60° Northeast 467 537 39,000  Level FlightAware ADS-B
Thu 10:50:07 PM 40.3368 -103.9910 60° Northeast 466 536 39,000  Level FlightAware ADS-B
Thu 10:50:38 PM 40.3698 -103.9150 60° Northeast 466 536 39,000  Level FlightAware ADS-B
Thu 10:51:08 PM 40.4021 -103.8420 60° Northeast 465 535 39,000  Level FlightAware ADS-B
Thu 10:51:39 PM 40.4348 -103.7670 60° Northeast 466 536 39,000  Level FlightAware ADS-B
Thu 10:52:11 PM 40.4685 -103.6890 60° Northeast 467 537 39,000  Level FlightAware ADS-B
Thu 10:52:41 PM 40.5007 -103.6150 60° Northeast 468 539 39,000  Level FlightAware ADS-B
Thu 10:53:20 PM 40.5428 -103.5180 60° Northeast 468 539 39,000  Level FlightAware ADS-B
Thu 10:53:51 PM 40.5758 -103.4420 60° Northeast 469 540 39,000  Level FlightAware ADS-B
Thu 10:54:23 PM 40.6093 -103.3640 60° Northeast 466 536 39,000  Level FlightAware ADS-B
Thu 10:54:54 PM 40.6422 -103.2870 61° Northeast 463 533 39,000  Level FlightAware ADS-B
Thu 10:55:24 PM 40.6741 -103.2130 60° Northeast 462 532 39,000  Level FlightAware ADS-B
Thu 10:55:54 PM 40.7057 -103.1390 61° Northeast 464 534 39,000  Level FlightAware ADS-B
Thu 10:56:24 PM 40.7374 -103.0650 60° Northeast 467 537 39,000  Level FlightAware ADS-B
Thu 10:56:54 PM 40.7690 -102.9900 61° Northeast 468 539 39,000  Level FlightAware ADS-B
Thu 10:57:25 PM 40.8011 -102.9140 61° Northeast 467 537 39,000  Level FlightAware ADS-B
Thu 10:57:56 PM 40.8333 -102.8380 61° Northeast 462 532 39,000  Level FlightAware ADS-B
Thu 10:58:26 PM 40.8644 -102.7650 61° Northeast 459 528 39,000  Level FlightAware ADS-B
Thu 10:58:57 PM 40.8970 -102.6870 61° Northeast 459 528 39,000  Level FlightAware ADS-B
Thu 10:59:29 PM 40.9297 -102.6090 61° Northeast 461 531 39,000  Level FlightAware ADS-B
Thu 10:59:59 PM 40.9608 -102.5350 61° Northeast 462 532 39,000  Level FlightAware ADS-B
Thu 11:00:30 PM 40.9922 -102.4600 61° Northeast 463 533 39,000  Level FlightAware ADS-B
Thu 11:01:02 PM 41.0253 -102.3810 61° Northeast 464 534 39,000  Level FlightAware ADS-B
Thu 11:01:33 PM 41.0575 -102.3030 61° Northeast 467 537 39,000  Level FlightAware ADS-B
Thu 11:02:03 PM 41.0896 -102.2260 61° Northeast 471 542 39,000  Level FlightAware ADS-B
Thu 11:02:34 PM 41.1213 -102.1500 61° Northeast 475 547 39,000  Level FlightAware ADS-B
Thu 11:03:04 PM 41.1532 -102.0720 61° Northeast 478 550 39,000  Level FlightAware ADS-B
Thu 11:03:35 PM 41.1862 -101.9920 61° Northeast 481 554 39,000  Level FlightAware ADS-B
Thu 11:04:05 PM 41.2184 -101.9140 61° Northeast 484 557 39,000  Level FlightAware ADS-B
Thu 11:04:35 PM 41.2506 -101.8350 62° Northeast 485 558 39,000  Level FlightAware ADS-B
Thu 11:05:08 PM 41.2852 -101.7500 62° Northeast 486 559 39,000  Level FlightAware ADS-B
Thu 11:05:39 PM 41.3182 -101.6690 62° Northeast 489 563 39,000  Level FlightAware ADS-B
Thu 11:06:17 PM 41.3380 -101.6200 62° Northeast 489 563 39,000  Level FlightAware ADS-B
Thu 11:06:35 PM 41.3787 -101.5200 61° Northeast 489 563 39,000  Level FlightAware ADS-B
Thu 11:07:08 PM 41.4143 -101.4320 62° Northeast 491 565 39,000  Level FlightAware ADS-B
Thu 11:07:40 PM 41.4480 -101.3480 62° Northeast 488 562 39,000  Level FlightAware ADS-B
Thu 11:08:10 PM 41.4802 -101.2680 62° Northeast 485 558 39,000  Level FlightAware ADS-B
Thu 11:08:49 PM 41.5211 -101.1660 62° Northeast 487 560 39,000  Level FlightAware ADS-B
Thu 11:09:19 PM 41.5480 -101.1010 61° Northeast 487 560 39,000  Level FlightAware ADS-B
Thu 11:09:57 PM 41.5830 -101.0150 61° Northeast 487 560 39,000  Level FlightAware ADS-B
Thu 11:10:47 PM 41.6300 -100.9030 61° Northeast 487 560 39,000  Level FlightAware ADS-B
Thu 11:11:32 PM 41.6710 -100.8030 61° Northeast 487 560 39,000  Level FlightAware ADS-B
Thu 11:12:20 PM 41.7160 -100.6950 61° Northeast 487 560 39,000  Level FlightAware ADS-B
Thu 11:12:56 PM 41.7490 -100.6140 61° Northeast 487 560 39,000  Level FlightAware ADS-B
Thu 11:13:42 PM 41.7920 -100.5110 61° Northeast 487 560 39,000  Level FlightAware ADS-B
Thu 11:14:28 PM 41.8350 -100.4070 61° Northeast 487 560 39,000  Level FlightAware ADS-B
Thu 11:15:04 PM 41.8680 -100.3260 61° Northeast 487 560 39,000  Level FlightAware ADS-B
Thu 11:15:53 PM 41.9140 -100.2160 61° Northeast 487 560 39,000  Level FlightAware ADS-B
Thu 11:16:30 PM 41.9480 -100.1330 61° Northeast 487 560 39,000  Level FlightAware ADS-B
Thu 11:17:31 PM 42.0050 -99.9950 61° Northeast 487 560 39,000  Level FlightAware ADS-B
Thu 11:18:07 PM 42.0380 -99.9140 61° Northeast 487 560 39,000  Level FlightAware ADS-B
Thu 11:18:47 PM 42.0750 -99.8240 61° Northeast 487 560 39,000  Level FlightAware ADS-B
Thu 11:23:46 PM 42.0630 -98.4700 90° East 509 586 39,000  Level FlightAware ADS-B
Thu 11:24:24 PM 42.0710 -98.3630 84° East 509 586 39,000  Level FlightAware ADS-B
Thu 11:25:31 PM 42.0850 -98.1840 84° East 509 586 39,000  Level FlightAware ADS-B
Thu 11:26:19 PM 42.0950 -98.0550 84° East 509 586 39,000  Level FlightAware ADS-B
Thu 11:26:55 PM 42.1030 -97.9580 84° East 509 586 39,000  Level FlightAware ADS-B
Thu 11:27:42 PM 42.1120 -97.8320 84° East 509 586 39,000  Level FlightAware ADS-B
Thu 11:28:18 PM 42.1200 -97.7360 84° East 509 586 39,000  Level FlightAware ADS-B
Thu 11:29:07 PM 42.1300 -97.6040 84° East 509 586 39,000  Level FlightAware ADS-B
Thu 11:29:47 PM 42.1460 -97.3230 86° East 516 594 39,000  Level FlightAware ADS-B
Thu 11:30:30 PM 42.1560 -97.1770 85° East 515 593 39,000  Level FlightAware ADS-B
Thu 11:31:10 PM 42.1640 -97.0530 85° East 511 588 39,000  Level FlightAware ADS-B
Thu 11:31:48 PM 42.1720 -96.9330 85° East 510 587 39,000  Level FlightAware ADS-B
Thu 11:32:36 PM 42.1820 -96.7770 85° East 512 589 39,000  Level FlightAware ADS-B
Thu 11:33:18 PM 42.1900 -96.6430 85° East 514 592 39,000  Level FlightAware ADS-B
Thu 11:33:56 PM 42.1970 -96.5240 85° East 515 593 39,000  Level FlightAware ADS-B
Thu 11:34:40 PM 42.2060 -96.3820 85° East 516 594 39,000  Level FlightAware ADS-B
Thu 11:35:20 PM 42.2130 -96.2560 86° East 515 593 39,000  Level FlightAware ADS-B
Thu 11:36:04 PM 42.2210 -96.1160 86° East 511 588 39,000  Level FlightAware ADS-B
Thu 11:36:48 PM 42.2290 -95.9760 86° East 507 583 39,000  Level FlightAware ADS-B
Thu 11:37:32 PM 42.2370 -95.8360 86° East 508 585 39,000  Level FlightAware ADS-B
Thu 11:38:10 PM 42.2430 -95.7180 86° East 508 585 39,000  Level FlightAware ADS-B
Thu 11:38:56 PM 42.2510 -95.5750 86° East 506 582 39,000  Level FlightAware ADS-B
Thu 11:39:36 PM 42.2570 -95.4490 86° East 504 580 39,000  Level FlightAware ADS-B
Thu 11:40:16 PM 42.2640 -95.3230 86° East 504 580 39,000  Level FlightAware ADS-B
Thu 11:40:58 PM 42.2700 -95.1900 86° East 502 578 39,000  Level FlightAware ADS-B
Thu 11:41:44 PM 42.2770 -95.0470 86° East 500 575 39,000  Level FlightAware ADS-B
Thu 11:42:21 PM 42.2820 -94.9360 86° East 499 574 39,000  Level FlightAware ADS-B
Thu 11:43:04 PM 42.2890 -94.8030 86° East 499 574 39,000  Level FlightAware ADS-B
Thu 11:43:48 PM 42.2950 -94.6630 87° East 499 574 39,000  Level FlightAware ADS-B
Thu 11:44:28 PM 42.3000 -94.5400 87° East 500 575 39,000  Level FlightAware ADS-B
Thu 11:45:10 PM 42.3060 -94.4060 86° East 501 577 39,000  Level FlightAware ADS-B
Thu 11:45:54 PM 42.3120 -94.2700 87° East 502 578 39,000  Level FlightAware ADS-B
Thu 11:46:37 PM 42.3170 -94.1360 87° East 502 578 39,000  Level FlightAware ADS-B
Thu 11:47:18 PM 42.3220 -94.0090 87° East 501 577 39,000  Level FlightAware ADS-B
Thu 11:48:02 PM 42.3270 -93.8710 87° East 502 578 39,000  Level FlightAware ADS-B
Thu 11:48:42 PM 42.3320 -93.7450 87° East 501 577 39,000  Level FlightAware ADS-B
Thu 11:49:22 PM 42.3360 -93.6210 87° East 499 574 39,000  Level FlightAware ADS-B
Thu 11:50:06 PM 42.3410 -93.4850 87° East 497 572 39,000  Level FlightAware ADS-B
Thu 11:50:48 PM 42.3450 -93.3550 88° East 494 568 39,000  Level FlightAware ADS-B
Thu 11:51:16 PM 42.3480 -93.2680 87° East 493 567 39,000  Level FlightAware ADS-B
Thu 11:52:02 PM 42.3530 -93.1290 87° East 492 566 39,000  Level FlightAware ADS-B
Thu 11:52:42 PM 42.3560 -93.0050 88° East 491 565 39,000  Level FlightAware ADS-B
Thu 11:53:24 PM 42.3600 -92.8740 88° East 491 565 39,000  Level FlightAware ADS-B
Thu 11:54:08 PM 42.3640 -92.7420 88° East 490 564 39,000  Level FlightAware ADS-B
Thu 11:54:50 PM 42.3670 -92.6130 88° East 489 563 39,000  Level FlightAware ADS-B
Thu 11:55:23 PM 42.3700 -92.5150 88° East 490 564 39,000  Level FlightAware ADS-B
Thu 11:56:12 PM 42.3730 -92.3620 88° East 493 567 39,000  Level FlightAware ADS-B
Thu 11:56:54 PM 42.3770 -92.2340 88° East 493 567 39,000  Level FlightAware ADS-B
Thu 11:57:34 PM 42.3790 -92.1110 89° East 494 568 39,000  Level FlightAware ADS-B
Thu 11:58:18 PM 42.3810 -91.9760 89° East 494 568 39,000  Level FlightAware ADS-B
Thu 11:58:58 PM 42.3820 -91.8520 89° East 495 570 39,000 -145 Level FlightAware ADS-B
Thu 11:59:41 PM 42.3840 -91.7230 89° East 494 568 38,800 -1,047 Descending FlightAware ADS-B
Fri 12:00:24 AM 42.3850 -91.5860 89° East 504 580 37,500 -1,835 Descending FlightAware ADS-B
Fri 12:01:06 AM 42.3870 -91.4550 89° East 523 602 36,200 -1,829 Descending FlightAware ADS-B
Fri 12:01:46 AM 42.3880 -91.3310 89° East 521 600 35,000 -1,950 Descending FlightAware ADS-B
Fri 12:02:26 AM 42.3890 -91.1990 89° East 519 597 33,600 -1,976 Descending FlightAware ADS-B
Fri 12:03:11 AM 42.3900 -91.0460 89° East 524 603 32,200 -2,047 Descending FlightAware ADS-B
Fri 12:03:51 AM 42.3900 -90.9160 90° East 525 604 30,700 -2,286 Descending FlightAware ADS-B
Fri 12:04:35 AM 42.3900 -90.7750 90° East 518 596 29,000 -2,386 Descending FlightAware ADS-B
Fri 12:05:19 AM 42.3910 -90.6330 89° East 503 579 27,200 -706 Descending FlightAware ADS-B
Fri 12:08:16 AM 42.3910 -90.5600 90° East 492 566 26,400 -1,929 Descending FlightAware ADS-B
Fri 12:09:03 AM 42.3900 -89.9730 90° East 448 516 20,000 -5,461 Descending FlightAware ADS-B
Fri 12:09:45 AM 42.3900 -89.8590 90° East 433 498 18,300 -2,195 Descending FlightAware ADS-B
Fri 12:10:25 AM 42.3890 -89.7530 91° East 415 478 17,000 -1,442 Descending FlightAware ADS-B
Fri 12:11:29 AM 42.3880 -89.5880 90° East 408 470 15,800 -1,091 Descending FlightAware ADS-B
Fri 12:12:15 AM 42.3870 -89.4710 91° East 403 464 15,000 -977 Descending FlightAware ADS-B
Fri 12:12:55 AM 42.3860 -89.3720 91° East 399 459 14,400 -929 Descending FlightAware ADS-B
Fri 12:13:39 AM 42.3850 -89.2640 91° East 392 451 13,700 -1,186 Descending FlightAware ADS-B
Fri 12:14:21 AM 42.3840 -89.1620 91° East 391 450 12,700 -1,425 Descending FlightAware ADS-B
Fri 12:14:59 AM 42.3830 -89.0690 91° East 385 443 11,800 -1,275 Descending FlightAware ADS-B
Fri 12:15:41 AM 42.3820 -88.9700 91° East 375 432 11,000 -614 Descending FlightAware ADS-B
Fri 12:16:27 AM 42.3800 -88.8610 91° East 373 429 10,900 -477 Descending FlightAware ADS-B
Fri 12:17:09 AM 42.3790 -88.7630 91° East 373 429 10,300 -771 Descending FlightAware ADS-B
Fri 12:17:37 AM 42.3780 -88.6990 91° East 361 415 10,000 -429 Descending FlightAware ADS-B
Fri 12:18:05 AM 42.3770 -88.6370 91° East 358 412 9,900 -107 Descending FlightAware ADS-B
Fri 12:18:33 AM 42.3760 -88.5740 91° East 357 411 9,900  Level FlightAware ADS-B
Fri 12:18:45 AM 42.3740 -88.5490 96° East 346 398 9,900  Level FlightAware ADS-B
Fri 12:19:13 AM 42.3630 -88.4930 105° East 317 365 9,900 -517 Level FlightAware ADS-B
Fri 12:19:43 AM 42.3430 -88.4410 117° Southeast 303 349 9,400 -1,034 Descending FlightAware ADS-B
Fri 12:20:11 AM 42.3170 -88.4040 134° Southeast 300 345 8,900 -1,050 Descending FlightAware ADS-B
Fri 12:20:23 AM 42.3030 -88.3930 150° Southeast 299 344 8,700 -1,350 Descending FlightAware ADS-B
Fri 12:20:51 AM 42.2700 -88.3670 150° Southeast 293 337 8,000 -1,714 Descending FlightAware ADS-B
Fri 12:21:19 AM 42.2360 -88.3410 150° Southeast 292 336 7,100 -1,714 Descending FlightAware ADS-B
Fri 12:21:47 AM 42.2040 -88.3150 149° Southeast 282 325 6,400 -1,286 Descending FlightAware ADS-B
Fri 12:22:15 AM 42.1750 -88.2910 148° Southeast 269 310 5,900 -1,552 Descending FlightAware ADS-B
Fri 12:22:45 AM 42.1430 -88.2660 150° Southeast 262 302 4,900 -1,759 Descending FlightAware ADS-B
Fri 12:23:13 AM 42.1120 -88.2460 154° Southeast 264 304 4,200 -1,071 Descending FlightAware ADS-B
Fri 12:23:41 AM 42.0780 -88.2440 178° South 260 299 3,900 -360 Descending FlightAware ADS-B
Fri 12:24:03 AM 42.0510 -88.2420 177° South 259 298 3,900  Level FlightAware ADS-B
Fri 12:24:35 AM 42.0140 -88.2400 178° South 254 292 3,900  Level FlightAware ADS-B
Fri 12:25:01 AM 41.9840 -88.2390 179° South 249 287 3,900  Level FlightAware ADS-B
Fri 12:25:19 AM 41.9640 -88.2290 160° South 243 280 3,900  Level FlightAware ADS-B
Fri 12:25:31 AM 41.9560 -88.2160 130° Southeast 235 270 3,900  Level FlightAware ADS-B
Fri 12:25:46 AM 41.9520 -88.1970 106° East 224 258 3,900 -429 Level FlightAware ADS-B
Fri 12:26:13 AM 41.9580 -88.1640 76° East 193 222 3,600 -792 Descending FlightAware ADS-B
Fri 12:26:39 AM 41.9650 -88.1330 73° East 189 217 3,200 -1,071 Descending FlightAware ADS-B
Fri 12:27:09 AM 41.9720 -88.1010 74° East 178 205 2,600 -900 Descending FlightAware ADS-B
Fri 12:27:39 AM 41.9790 -88.0700 73° East 165 190 2,300 -421 Descending FlightAware ADS-B
Fri 12:28:06 AM 41.9820 -88.0430 81° East 161 185 2,200 -321 Descending FlightAware ADS-B
Fri 12:28:35 AM 41.9830 -88.0160 87° East 150 173 2,000 -632 Descending FlightAware ADS-B
Fri 12:29:03 AM 41.9830 -87.9910 90° East 134 154 1,600 -792 Descending FlightAware ADS-B
Fri 12:29:28 AM 41.9840 -87.9700 86° East 141 162 1,300 -218 Descending FlightAware ADS-B
Fri 12:33:11 AM 41.9840 -87.9270 90° East 145 167 700 -161 Descending FlightAware ADS-B
Fri 12:33:47 AM 41.9820 -87.8940 95° East 26 30 -1,167 Descending FlightAware ADS-B
Fri 12:34:14 AM 41.9800 -87.8910 132° Southeast 26 30  Level FlightAware ADS-B
Fri 12:35:18 AM 41.9730 -87.8960 208° Southwest 26 30  Level FlightAware ADS-B
Fri 12:38:00 AM 41.9667 -87.9000 143° Southeast  Level FlightAware Approximate

Login

Don't have an account? Register now (free) for customized features, flight alerts, and more!